sensor_id;sensor_type;location;lat;lon;timestamp;temperature;humidity
1329;DHT22;658;48.820;9.354;2023-08-07T00:02:35;22.40;55.40
1329;DHT22;658;48.820;9.354;2023-08-07T00:06:35;22.40;55.40
1329;DHT22;658;48.820;9.354;2023-08-07T00:10:38;22.40;55.40
1329;DHT22;658;48.820;9.354;2023-08-07T00:14:39;22.30;55.30
1329;DHT22;658;48.820;9.354;2023-08-07T00:18:40;22.30;55.20
1329;DHT22;658;48.820;9.354;2023-08-07T00:22:43;22.30;55.30
1329;DHT22;658;48.820;9.354;2023-08-07T00:26:43;22.30;55.20
1329;DHT22;658;48.820;9.354;2023-08-07T00:30:46;22.20;55.20
1329;DHT22;658;48.820;9.354;2023-08-07T00:34:47;22.20;55.20
1329;DHT22;658;48.820;9.354;2023-08-07T00:38:47;22.20;55.30
1329;DHT22;658;48.820;9.354;2023-08-07T00:42:48;22.20;55.30
1329;DHT22;658;48.820;9.354;2023-08-07T00:46:49;22.20;55.30
1329;DHT22;658;48.820;9.354;2023-08-07T00:50:51;22.20;55.20
1329;DHT22;658;48.820;9.354;2023-08-07T00:54:52;22.20;55.10
1329;DHT22;658;48.820;9.354;2023-08-07T00:58:53;22.10;55.10
1329;DHT22;658;48.820;9.354;2023-08-07T01:02:55;22.10;55.10
1329;DHT22;658;48.820;9.354;2023-08-07T01:06:56;22.10;55.20
1329;DHT22;658;48.820;9.354;2023-08-07T01:15:29;22.10;55.00
1329;DHT22;658;48.820;9.354;2023-08-07T01:19:31;22.10;55.10
1329;DHT22;658;48.820;9.354;2023-08-07T01:23:34;22.10;54.90
1329;DHT22;658;48.820;9.354;2023-08-07T01:28:02;22.10;55.00
1329;DHT22;658;48.820;9.354;2023-08-07T01:32:07;22.10;54.90
1329;DHT22;658;48.820;9.354;2023-08-07T01:36:09;22.10;54.80
1329;DHT22;658;48.820;9.354;2023-08-07T01:40:11;22.00;54.80
1329;DHT22;658;48.820;9.354;2023-08-07T01:44:14;22.00;54.70
1329;DHT22;658;48.820;9.354;2023-08-07T01:48:15;22.00;54.80
1329;DHT22;658;48.820;9.354;2023-08-07T01:52:15;22.00;54.70
1329;DHT22;658;48.820;9.354;2023-08-07T01:56:16;22.00;54.70
1329;DHT22;658;48.820;9.354;2023-08-07T02:00:17;22.00;54.60
1329;DHT22;658;48.820;9.354;2023-08-07T02:04:17;22.00;54.70
1329;DHT22;658;48.820;9.354;2023-08-07T02:08:18;22.00;54.80
1329;DHT22;658;48.820;9.354;2023-08-07T02:12:18;22.00;54.60
1329;DHT22;658;48.820;9.354;2023-08-07T02:16:19;22.00;54.50
1329;DHT22;658;48.820;9.354;2023-08-07T02:20:19;22.00;54.50
1329;DHT22;658;48.820;9.354;2023-08-07T02:24:20;22.00;54.50
1329;DHT22;658;48.820;9.354;2023-08-07T02:28:21;22.00;54.60
1329;DHT22;658;48.820;9.354;2023-08-07T02:32:21;22.00;54.60
1329;DHT22;658;48.820;9.354;2023-08-07T02:36:22;22.00;54.40
1329;DHT22;658;48.820;9.354;2023-08-07T02:40:22;22.00;54.30
1329;DHT22;658;48.820;9.354;2023-08-07T02:44:25;21.90;54.10
1329;DHT22;658;48.820;9.354;2023-08-07T02:48:26;21.90;54.30
1329;DHT22;658;48.820;9.354;2023-08-07T02:52:26;21.90;54.20
1329;DHT22;658;48.820;9.354;2023-08-07T02:56:27;21.90;54.20
1329;DHT22;658;48.820;9.354;2023-08-07T03:00:27;21.90;54.00
1329;DHT22;658;48.820;9.354;2023-08-07T03:04:28;21.90;54.20
1329;DHT22;658;48.820;9.354;2023-08-07T03:08:29;21.90;54.10
1329;DHT22;658;48.820;9.354;2023-08-07T03:12:30;21.90;54.20
1329;DHT22;658;48.820;9.354;2023-08-07T03:16:32;21.90;54.10
1329;DHT22;658;48.820;9.354;2023-08-07T03:20:33;21.90;54.00
1329;DHT22;658;48.820;9.354;2023-08-07T03:24:38;21.90;54.10
1329;DHT22;658;48.820;9.354;2023-08-07T03:28:41;21.90;54.00
1329;DHT22;658;48.820;9.354;2023-08-07T03:32:42;21.90;54.00
1329;DHT22;658;48.820;9.354;2023-08-07T03:36:42;21.90;54.00
1329;DHT22;658;48.820;9.354;2023-08-07T03:40:43;21.90;54.00
1329;DHT22;658;48.820;9.354;2023-08-07T03:44:44;21.90;54.00
1329;DHT22;658;48.820;9.354;2023-08-07T03:48:44;21.90;54.00
1329;DHT22;658;48.820;9.354;2023-08-07T03:52:45;21.80;53.70
1329;DHT22;658;48.820;9.354;2023-08-07T03:56:47;21.90;53.70
1329;DHT22;658;48.820;9.354;2023-08-07T04:00:51;21.80;53.60
1329;DHT22;658;48.820;9.354;2023-08-07T04:04:52;21.80;53.70
1329;DHT22;658;48.820;9.354;2023-08-07T04:08:52;21.80;53.70
1329;DHT22;658;48.820;9.354;2023-08-07T04:12:55;21.80;53.80
1329;DHT22;658;48.820;9.354;2023-08-07T04:16:56;21.80;53.60
1329;DHT22;658;48.820;9.354;2023-08-07T04:20:59;21.80;53.60
1329;DHT22;658;48.820;9.354;2023-08-07T04:25:00;21.80;53.80
1329;DHT22;658;48.820;9.354;2023-08-07T04:29:03;21.80;53.50
1329;DHT22;658;48.820;9.354;2023-08-07T04:33:03;21.80;53.60
1329;DHT22;658;48.820;9.354;2023-08-07T04:37:05;21.80;53.60
1329;DHT22;658;48.820;9.354;2023-08-07T04:41:06;21.80;53.60
1329;DHT22;658;48.820;9.354;2023-08-07T04:45:07;21.80;53.50
1329;DHT22;658;48.820;9.354;2023-08-07T04:49:08;21.80;53.50
1329;DHT22;658;48.820;9.354;2023-08-07T04:53:08;21.80;53.30
1329;DHT22;658;48.820;9.354;2023-08-07T04:57:09;21.80;53.40
1329;DHT22;658;48.820;9.354;2023-08-07T05:01:10;21.80;53.50
1329;DHT22;658;48.820;9.354;2023-08-07T05:05:10;21.80;53.30
1329;DHT22;658;48.820;9.354;2023-08-07T05:09:11;21.80;53.40
1329;DHT22;658;48.820;9.354;2023-08-07T05:13:11;21.80;53.50
1329;DHT22;658;48.820;9.354;2023-08-07T05:17:12;21.80;53.40
1329;DHT22;658;48.820;9.354;2023-08-07T05:21:16;21.80;53.40
1329;DHT22;658;48.820;9.354;2023-08-07T05:25:16;21.80;53.40
1329;DHT22;658;48.820;9.354;2023-08-07T05:29:17;21.80;53.40
1329;DHT22;658;48.820;9.354;2023-08-07T05:33:18;21.90;53.30
1329;DHT22;658;48.820;9.354;2023-08-07T05:37:18;21.90;53.30
1329;DHT22;658;48.820;9.354;2023-08-07T05:41:19;21.90;53.20
1329;DHT22;658;48.820;9.354;2023-08-07T05:45:19;21.80;53.20
1329;DHT22;658;48.820;9.354;2023-08-07T05:49:21;21.80;53.20
1329;DHT22;658;48.820;9.354;2023-08-07T05:53:22;21.90;54.10
1329;DHT22;658;48.820;9.354;2023-08-07T05:57:22;22.00;53.90
1329;DHT22;658;48.820;9.354;2023-08-07T06:01:25;22.10;53.50
1329;DHT22;658;48.820;9.354;2023-08-07T06:05:32;22.10;53.30
1329;DHT22;658;48.820;9.354;2023-08-07T06:09:36;22.20;53.10
1329;DHT22;658;48.820;9.354;2023-08-07T06:13:36;22.20;53.10
1329;DHT22;658;48.820;9.354;2023-08-07T06:17:37;22.20;53.00
1329;DHT22;658;48.820;9.354;2023-08-07T06:21:39;22.30;53.00
1329;DHT22;658;48.820;9.354;2023-08-07T06:25:40;22.30;53.10
1329;DHT22;658;48.820;9.354;2023-08-07T06:29:40;22.30;52.90
1329;DHT22;658;48.820;9.354;2023-08-07T06:33:41;22.40;53.00
1329;DHT22;658;48.820;9.354;2023-08-07T06:37:41;22.40;53.00
1329;DHT22;658;48.820;9.354;2023-08-07T06:41:44;22.40;52.90
1329;DHT22;658;48.820;9.354;2023-08-07T06:45:55;22.30;53.00
1329;DHT22;658;48.820;9.354;2023-08-07T06:49:56;22.40;53.00
1329;DHT22;658;48.820;9.354;2023-08-07T06:53:56;22.40;52.90
1329;DHT22;658;48.820;9.354;2023-08-07T06:57:57;22.40;52.90
1329;DHT22;658;48.820;9.354;2023-08-07T07:01:57;22.50;53.10
1329;DHT22;658;48.820;9.354;2023-08-07T07:05:58;22.50;53.00
1329;DHT22;658;48.820;9.354;2023-08-07T07:09:59;22.60;52.90
1329;DHT22;658;48.820;9.354;2023-08-07T07:14:01;22.60;52.50
1329;DHT22;658;48.820;9.354;2023-08-07T07:18:02;22.60;51.70
1329;DHT22;658;48.820;9.354;2023-08-07T07:22:03;22.70;51.60
1329;DHT22;658;48.820;9.354;2023-08-07T07:26:04;22.70;51.60
1329;DHT22;658;48.820;9.354;2023-08-07T07:30:05;22.80;51.60
1329;DHT22;658;48.820;9.354;2023-08-07T07:34:05;22.80;51.50
1329;DHT22;658;48.820;9.354;2023-08-07T07:38:06;22.90;51.60
1329;DHT22;658;48.820;9.354;2023-08-07T07:42:07;22.90;51.50
1329;DHT22;658;48.820;9.354;2023-08-07T07:46:08;22.90;51.40
1329;DHT22;658;48.820;9.354;2023-08-07T07:50:09;23.00;51.40
1329;DHT22;658;48.820;9.354;2023-08-07T07:54:10;23.00;51.30
1329;DHT22;658;48.820;9.354;2023-08-07T07:58:11;23.00;51.80
1329;DHT22;658;48.820;9.354;2023-08-07T08:02:11;23.10;51.40
1329;DHT22;658;48.820;9.354;2023-08-07T08:06:12;23.10;51.40
1329;DHT22;658;48.820;9.354;2023-08-07T08:10:13;23.10;51.30
1329;DHT22;658;48.820;9.354;2023-08-07T08:14:14;23.20;51.50
1329;DHT22;658;48.820;9.354;2023-08-07T08:18:15;23.20;51.40
1329;DHT22;658;48.820;9.354;2023-08-07T08:22:15;23.20;51.40
1329;DHT22;658;48.820;9.354;2023-08-07T08:26:16;23.20;51.40
1329;DHT22;658;48.820;9.354;2023-08-07T08:30:16;23.10;51.60
1329;DHT22;658;48.820;9.354;2023-08-07T08:34:19;23.10;51.80
1329;DHT22;658;48.820;9.354;2023-08-07T08:38:21;23.20;51.60
1329;DHT22;658;48.820;9.354;2023-08-07T08:42:22;23.20;51.60
1329;DHT22;658;48.820;9.354;2023-08-07T08:46:28;23.20;51.50
1329;DHT22;658;48.820;9.354;2023-08-07T08:50:30;23.30;51.50
1329;DHT22;658;48.820;9.354;2023-08-07T08:54:32;23.30;51.50
1329;DHT22;658;48.820;9.354;2023-08-07T08:58:33;23.30;51.40
1329;DHT22;658;48.820;9.354;2023-08-07T09:02:35;23.40;51.40
1329;DHT22;658;48.820;9.354;2023-08-07T09:06:38;23.40;51.30
1329;DHT22;658;48.820;9.354;2023-08-07T09:10:39;23.40;51.20
1329;DHT22;658;48.820;9.354;2023-08-07T09:14:41;23.50;51.10
1329;DHT22;658;48.820;9.354;2023-08-07T09:18:42;23.50;51.10
1329;DHT22;658;48.820;9.354;2023-08-07T09:22:45;23.50;51.10
1329;DHT22;658;48.820;9.354;2023-08-07T09:26:46;23.60;51.10
1329;DHT22;658;48.820;9.354;2023-08-07T09:30:48;23.60;51.00
1329;DHT22;658;48.820;9.354;2023-08-07T09:34:49;23.60;51.00
1329;DHT22;658;48.820;9.354;2023-08-07T09:38:50;23.60;51.00
1329;DHT22;658;48.820;9.354;2023-08-07T09:42:54;23.70;51.00
1329;DHT22;658;48.820;9.354;2023-08-07T09:46:54;23.70;51.00
1329;DHT22;658;48.820;9.354;2023-08-07T09:51:00;23.70;50.80
1329;DHT22;658;48.820;9.354;2023-08-07T09:55:01;23.80;50.90
1329;DHT22;658;48.820;9.354;2023-08-07T09:59:04;23.80;50.90
1329;DHT22;658;48.820;9.354;2023-08-07T10:03:05;23.80;50.80
1329;DHT22;658;48.820;9.354;2023-08-07T10:07:09;23.80;50.80
1329;DHT22;658;48.820;9.354;2023-08-07T10:11:12;23.90;50.80
1329;DHT22;658;48.820;9.354;2023-08-07T10:15:15;23.90;50.60
1329;DHT22;658;48.820;9.354;2023-08-07T10:19:15;23.90;50.50
1329;DHT22;658;48.820;9.354;2023-08-07T10:23:16;24.00;50.50
1329;DHT22;658;48.820;9.354;2023-08-07T10:27:19;24.00;50.50
1329;DHT22;658;48.820;9.354;2023-08-07T10:31:22;24.10;50.50
1329;DHT22;658;48.820;9.354;2023-08-07T10:35:31;24.10;50.40
1329;DHT22;658;48.820;9.354;2023-08-07T10:39:32;24.10;50.30
1329;DHT22;658;48.820;9.354;2023-08-07T10:43:45;24.10;50.20
1329;DHT22;658;48.820;9.354;2023-08-07T10:52:14;24.20;50.40
1329;DHT22;658;48.820;9.354;2023-08-07T10:56:34;24.20;50.30
1329;DHT22;658;48.820;9.354;2023-08-07T11:00:35;24.20;50.10
1329;DHT22;658;48.820;9.354;2023-08-07T11:04:39;24.10;50.00
1329;DHT22;658;48.820;9.354;2023-08-07T11:08:40;24.10;50.00
1329;DHT22;658;48.820;9.354;2023-08-07T11:12:41;24.10;50.10
1329;DHT22;658;48.820;9.354;2023-08-07T11:16:42;24.10;50.10
1329;DHT22;658;48.820;9.354;2023-08-07T11:20:44;24.10;50.10
1329;DHT22;658;48.820;9.354;2023-08-07T11:24:46;24.10;50.20
1329;DHT22;658;48.820;9.354;2023-08-07T11:28:49;24.00;50.20
1329;DHT22;658;48.820;9.354;2023-08-07T11:32:50;24.00;50.70
1329;DHT22;658;48.820;9.354;2023-08-07T11:36:51;24.00;50.60
1329;DHT22;658;48.820;9.354;2023-08-07T11:40:53;24.00;50.60
1329;DHT22;658;48.820;9.354;2023-08-07T11:44:54;23.90;50.60
1329;DHT22;658;48.820;9.354;2023-08-07T11:48:56;24.00;50.70
1329;DHT22;658;48.820;9.354;2023-08-07T11:52:56;24.00;50.70
1329;DHT22;658;48.820;9.354;2023-08-07T11:57:00;24.00;50.70
1329;DHT22;658;48.820;9.354;2023-08-07T12:01:21;24.00;50.70
1329;DHT22;658;48.820;9.354;2023-08-07T12:05:22;24.00;50.50
1329;DHT22;658;48.820;9.354;2023-08-07T12:09:26;24.10;50.60
1329;DHT22;658;48.820;9.354;2023-08-07T12:13:27;24.10;50.60
1329;DHT22;658;48.820;9.354;2023-08-07T12:17:33;24.10;50.60
1329;DHT22;658;48.820;9.354;2023-08-07T12:21:33;24.10;50.60
1329;DHT22;658;48.820;9.354;2023-08-07T12:25:34;24.10;50.60
1329;DHT22;658;48.820;9.354;2023-08-07T12:29:35;24.10;50.60
1329;DHT22;658;48.820;9.354;2023-08-07T12:33:36;24.10;50.70
1329;DHT22;658;48.820;9.354;2023-08-07T12:37:38;24.10;50.70
1329;DHT22;658;48.820;9.354;2023-08-07T12:41:41;24.10;50.80
1329;DHT22;658;48.820;9.354;2023-08-07T12:45:42;24.10;50.70
1329;DHT22;658;48.820;9.354;2023-08-07T12:49:42;24.10;50.60
1329;DHT22;658;48.820;9.354;2023-08-07T12:53:46;24.20;50.60
1329;DHT22;658;48.820;9.354;2023-08-07T12:57:47;24.20;50.60
1329;DHT22;658;48.820;9.354;2023-08-07T13:01:51;24.20;50.50
1329;DHT22;658;48.820;9.354;2023-08-07T13:05:53;24.20;50.50
1329;DHT22;658;48.820;9.354;2023-08-07T13:09:54;24.30;50.50
1329;DHT22;658;48.820;9.354;2023-08-07T13:13:55;24.30;50.40
1329;DHT22;658;48.820;9.354;2023-08-07T13:17:56;24.30;50.40
1329;DHT22;658;48.820;9.354;2023-08-07T13:21:57;24.30;50.40
1329;DHT22;658;48.820;9.354;2023-08-07T13:25:58;24.30;50.40
1329;DHT22;658;48.820;9.354;2023-08-07T13:29:59;24.30;50.40
1329;DHT22;658;48.820;9.354;2023-08-07T13:33:59;24.30;50.50
1329;DHT22;658;48.820;9.354;2023-08-07T13:38:00;24.30;50.50
1329;DHT22;658;48.820;9.354;2023-08-07T13:42:05;24.30;50.50
1329;DHT22;658;48.820;9.354;2023-08-07T13:46:06;24.30;50.60
1329;DHT22;658;48.820;9.354;2023-08-07T13:50:07;24.30;50.60
1329;DHT22;658;48.820;9.354;2023-08-07T13:54:07;24.30;50.70
1329;DHT22;658;48.820;9.354;2023-08-07T13:58:11;24.30;50.80
1329;DHT22;658;48.820;9.354;2023-08-07T14:02:11;24.30;50.60
1329;DHT22;658;48.820;9.354;2023-08-07T14:06:12;24.30;50.60
1329;DHT22;658;48.820;9.354;2023-08-07T14:10:12;24.40;50.50
1329;DHT22;658;48.820;9.354;2023-08-07T14:14:13;24.40;50.40
1329;DHT22;658;48.820;9.354;2023-08-07T14:18:14;24.40;50.50
1329;DHT22;658;48.820;9.354;2023-08-07T14:22:16;24.40;50.50
1329;DHT22;658;48.820;9.354;2023-08-07T14:26:16;24.40;50.60
1329;DHT22;658;48.820;9.354;2023-08-07T14:30:19;24.40;50.50
1329;DHT22;658;48.820;9.354;2023-08-07T14:34:22;24.40;50.50
1329;DHT22;658;48.820;9.354;2023-08-07T14:38:22;24.40;50.60
1329;DHT22;658;48.820;9.354;2023-08-07T14:42:24;24.40;50.50
1329;DHT22;658;48.820;9.354;2023-08-07T14:46:24;24.40;50.50
1329;DHT22;658;48.820;9.354;2023-08-07T14:50:25;24.40;50.40
1329;DHT22;658;48.820;9.354;2023-08-07T14:54:25;24.40;50.40
1329;DHT22;658;48.820;9.354;2023-08-07T14:58:26;24.40;50.60
1329;DHT22;658;48.820;9.354;2023-08-07T15:02:27;24.40;50.60
1329;DHT22;658;48.820;9.354;2023-08-07T15:06:27;24.40;50.50
1329;DHT22;658;48.820;9.354;2023-08-07T15:10:28;24.50;50.50
1329;DHT22;658;48.820;9.354;2023-08-07T15:14:29;24.50;50.50
1329;DHT22;658;48.820;9.354;2023-08-07T15:18:29;24.50;50.50
1329;DHT22;658;48.820;9.354;2023-08-07T15:22:30;24.50;50.30
1329;DHT22;658;48.820;9.354;2023-08-07T15:26:31;24.50;50.30
1329;DHT22;658;48.820;9.354;2023-08-07T15:30:32;24.40;50.30
1329;DHT22;658;48.820;9.354;2023-08-07T15:34:33;24.40;50.40
1329;DHT22;658;48.820;9.354;2023-08-07T15:38:35;24.30;50.10
1329;DHT22;658;48.820;9.354;2023-08-07T15:42:38;24.30;50.30
1329;DHT22;658;48.820;9.354;2023-08-07T15:46:40;24.30;50.30
1329;DHT22;658;48.820;9.354;2023-08-07T15:50:40;24.30;50.40
1329;DHT22;658;48.820;9.354;2023-08-07T15:54:41;24.30;50.30
1329;DHT22;658;48.820;9.354;2023-08-07T15:58:43;24.30;50.40
1329;DHT22;658;48.820;9.354;2023-08-07T16:02:44;24.30;50.40
1329;DHT22;658;48.820;9.354;2023-08-07T16:06:44;24.20;50.40
1329;DHT22;658;48.820;9.354;2023-08-07T16:10:45;24.30;50.30
1329;DHT22;658;48.820;9.354;2023-08-07T16:14:45;24.30;50.20
1329;DHT22;658;48.820;9.354;2023-08-07T16:18:50;24.30;50.20
1329;DHT22;658;48.820;9.354;2023-08-07T16:22:51;24.30;50.20
1329;DHT22;658;48.820;9.354;2023-08-07T16:26:56;24.20;50.10
1329;DHT22;658;48.820;9.354;2023-08-07T16:30:57;24.20;50.10
1329;DHT22;658;48.820;9.354;2023-08-07T16:34:58;24.20;50.10
1329;DHT22;658;48.820;9.354;2023-08-07T16:38:59;24.20;50.20
1329;DHT22;658;48.820;9.354;2023-08-07T16:42:59;24.20;50.30
1329;DHT22;658;48.820;9.354;2023-08-07T16:47:00;24.30;50.70
1329;DHT22;658;48.820;9.354;2023-08-07T16:51:00;24.30;50.30
1329;DHT22;658;48.820;9.354;2023-08-07T16:55:01;24.40;50.20
1329;DHT22;658;48.820;9.354;2023-08-07T16:59:03;24.50;50.30
1329;DHT22;658;48.820;9.354;2023-08-07T17:03:03;24.50;50.20
1329;DHT22;658;48.820;9.354;2023-08-07T17:07:05;24.50;50.10
1329;DHT22;658;48.820;9.354;2023-08-07T17:11:06;24.60;50.30
1329;DHT22;658;48.820;9.354;2023-08-07T17:15:07;24.60;50.20
1329;DHT22;658;48.820;9.354;2023-08-07T17:19:07;24.60;50.10
1329;DHT22;658;48.820;9.354;2023-08-07T17:23:08;24.60;50.10
1329;DHT22;658;48.820;9.354;2023-08-07T17:27:08;24.50;50.20
1329;DHT22;658;48.820;9.354;2023-08-07T17:31:09;24.50;50.20
1329;DHT22;658;48.820;9.354;2023-08-07T17:35:10;24.50;50.20
1329;DHT22;658;48.820;9.354;2023-08-07T17:39:13;24.50;50.20
1329;DHT22;658;48.820;9.354;2023-08-07T17:43:14;24.50;50.20
1329;DHT22;658;48.820;9.354;2023-08-07T17:47:15;24.50;50.20
1329;DHT22;658;48.820;9.354;2023-08-07T17:51:16;24.50;50.10
1329;DHT22;658;48.820;9.354;2023-08-07T17:55:16;24.50;50.10
1329;DHT22;658;48.820;9.354;2023-08-07T17:59:17;24.40;50.10
1329;DHT22;658;48.820;9.354;2023-08-07T18:03:18;24.50;52.10
1329;DHT22;658;48.820;9.354;2023-08-07T18:07:18;24.50;51.90
1329;DHT22;658;48.820;9.354;2023-08-07T18:11:19;24.50;51.60
1329;DHT22;658;48.820;9.354;2023-08-07T18:15:19;24.60;51.20
1329;DHT22;658;48.820;9.354;2023-08-07T18:19:20;24.60;51.30
1329;DHT22;658;48.820;9.354;2023-08-07T18:23:25;24.70;51.10
1329;DHT22;658;48.820;9.354;2023-08-07T18:27:26;24.60;50.90
1329;DHT22;658;48.820;9.354;2023-08-07T18:31:26;24.60;50.90
1329;DHT22;658;48.820;9.354;2023-08-07T18:35:30;24.60;50.80
1329;DHT22;658;48.820;9.354;2023-08-07T18:39:35;24.70;50.80
1329;DHT22;658;48.820;9.354;2023-08-07T18:43:38;24.70;50.70
1329;DHT22;658;48.820;9.354;2023-08-07T18:47:39;24.70;50.90
1329;DHT22;658;48.820;9.354;2023-08-07T18:51:40;24.70;50.90
1329;DHT22;658;48.820;9.354;2023-08-07T18:55:43;24.70;51.20
1329;DHT22;658;48.820;9.354;2023-08-07T18:59:46;24.60;51.10
1329;DHT22;658;48.820;9.354;2023-08-07T19:03:46;24.60;51.10
1329;DHT22;658;48.820;9.354;2023-08-07T19:07:47;24.60;51.60
1329;DHT22;658;48.820;9.354;2023-08-07T19:11:47;24.60;51.20
1329;DHT22;658;48.820;9.354;2023-08-07T19:15:48;24.50;51.20
1329;DHT22;658;48.820;9.354;2023-08-07T19:19:48;24.60;51.60
1329;DHT22;658;48.820;9.354;2023-08-07T19:23:51;24.60;51.30
1329;DHT22;658;48.820;9.354;2023-08-07T19:27:52;24.60;51.10
1329;DHT22;658;48.820;9.354;2023-08-07T19:31:52;24.60;51.20
1329;DHT22;658;48.820;9.354;2023-08-07T19:35:55;24.60;51.10
1329;DHT22;658;48.820;9.354;2023-08-07T19:39:56;24.50;50.90
1329;DHT22;658;48.820;9.354;2023-08-07T19:43:57;24.50;50.90
1329;DHT22;658;48.820;9.354;2023-08-07T19:47:57;24.50;50.90
1329;DHT22;658;48.820;9.354;2023-08-07T19:52:01;24.50;51.20
1329;DHT22;658;48.820;9.354;2023-08-07T19:56:02;24.50;51.20
1329;DHT22;658;48.820;9.354;2023-08-07T20:00:04;24.40;51.20
1329;DHT22;658;48.820;9.354;2023-08-07T20:04:05;24.40;51.60
1329;DHT22;658;48.820;9.354;2023-08-07T20:08:06;24.40;51.40
1329;DHT22;658;48.820;9.354;2023-08-07T20:12:07;24.40;51.40
1329;DHT22;658;48.820;9.354;2023-08-07T20:16:08;24.40;51.60
1329;DHT22;658;48.820;9.354;2023-08-07T20:20:09;24.30;51.80
1329;DHT22;658;48.820;9.354;2023-08-07T20:24:13;24.40;51.60
1329;DHT22;658;48.820;9.354;2023-08-07T20:28:13;24.30;51.60
1329;DHT22;658;48.820;9.354;2023-08-07T20:32:14;24.30;51.60
1329;DHT22;658;48.820;9.354;2023-08-07T20:36:15;24.30;51.40
1329;DHT22;658;48.820;9.354;2023-08-07T20:40:16;24.30;51.70
1329;DHT22;658;48.820;9.354;2023-08-07T20:44:16;24.30;51.70
1329;DHT22;658;48.820;9.354;2023-08-07T20:48:17;24.30;51.70
1329;DHT22;658;48.820;9.354;2023-08-07T20:52:20;24.30;51.60
1329;DHT22;658;48.820;9.354;2023-08-07T20:56:20;24.30;51.60
1329;DHT22;658;48.820;9.354;2023-08-07T21:00:21;24.30;51.60
1329;DHT22;658;48.820;9.354;2023-08-07T21:04:22;24.30;51.70
1329;DHT22;658;48.820;9.354;2023-08-07T21:08:23;24.30;51.60
1329;DHT22;658;48.820;9.354;2023-08-07T21:12:24;24.30;51.30
1329;DHT22;658;48.820;9.354;2023-08-07T21:16:25;24.20;51.20
1329;DHT22;658;48.820;9.354;2023-08-07T21:20:26;24.20;51.10
1329;DHT22;658;48.820;9.354;2023-08-07T21:24:29;24.10;50.90
1329;DHT22;658;48.820;9.354;2023-08-07T21:28:29;24.10;51.00
1329;DHT22;658;48.820;9.354;2023-08-07T21:32:30;24.10;50.80
1329;DHT22;658;48.820;9.354;2023-08-07T21:36:31;24.10;50.80
1329;DHT22;658;48.820;9.354;2023-08-07T21:40:31;24.00;50.90
1329;DHT22;658;48.820;9.354;2023-08-07T21:44:34;24.00;50.90
1329;DHT22;658;48.820;9.354;2023-08-07T21:48:35;23.90;51.00
1329;DHT22;658;48.820;9.354;2023-08-07T21:52:36;23.90;51.10
1329;DHT22;658;48.820;9.354;2023-08-07T21:56:37;23.90;51.20
1329;DHT22;658;48.820;9.354;2023-08-07T22:00:41;23.80;51.20
1329;DHT22;658;48.820;9.354;2023-08-07T22:04:42;23.80;51.30
1329;DHT22;658;48.820;9.354;2023-08-07T22:08:42;23.80;51.40
1329;DHT22;658;48.820;9.354;2023-08-07T22:12:43;23.70;51.40
1329;DHT22;658;48.820;9.354;2023-08-07T22:16:43;23.70;51.50
1329;DHT22;658;48.820;9.354;2023-08-07T22:20:44;23.60;51.50
1329;DHT22;658;48.820;9.354;2023-08-07T22:24:45;23.60;51.60
1329;DHT22;658;48.820;9.354;2023-08-07T22:28:45;23.60;51.70
1329;DHT22;658;48.820;9.354;2023-08-07T22:32:46;23.60;51.70
1329;DHT22;658;48.820;9.354;2023-08-07T22:36:48;23.50;51.70
1329;DHT22;658;48.820;9.354;2023-08-07T22:40:51;23.50;51.70
1329;DHT22;658;48.820;9.354;2023-08-07T22:44:51;23.50;51.80
1329;DHT22;658;48.820;9.354;2023-08-07T22:48:52;23.50;51.80
1329;DHT22;658;48.820;9.354;2023-08-07T22:52:53;23.40;51.80
1329;DHT22;658;48.820;9.354;2023-08-07T22:56:53;23.40;51.90
1329;DHT22;658;48.820;9.354;2023-08-07T23:00:54;23.30;51.80
1329;DHT22;658;48.820;9.354;2023-08-07T23:04:54;23.30;51.80
1329;DHT22;658;48.820;9.354;2023-08-07T23:08:55;23.40;51.90
1329;DHT22;658;48.820;9.354;2023-08-07T23:12:57;23.30;51.80
1329;DHT22;658;48.820;9.354;2023-08-07T23:16:58;23.30;51.90
1329;DHT22;658;48.820;9.354;2023-08-07T23:21:00;23.30;51.90
1329;DHT22;658;48.820;9.354;2023-08-07T23:25:01;23.30;51.90
1329;DHT22;658;48.820;9.354;2023-08-07T23:29:04;23.30;51.90
1329;DHT22;658;48.820;9.354;2023-08-07T23:33:05;23.30;51.90
1329;DHT22;658;48.820;9.354;2023-08-07T23:37:05;23.20;51.90
1329;DHT22;658;48.820;9.354;2023-08-07T23:41:06;23.20;51.90
1329;DHT22;658;48.820;9.354;2023-08-07T23:45:07;23.20;51.90
1329;DHT22;658;48.820;9.354;2023-08-07T23:49:08;23.20;51.90
1329;DHT22;658;48.820;9.354;2023-08-07T23:53:13;23.20;52.00
1329;DHT22;658;48.820;9.354;2023-08-07T23:57:14;23.20;52.00
